createdAt,value
2023-01-12T00:02:18.628Z,1002.33
2023-01-12T00:07:18.467Z,1002.35
2023-01-12T00:12:18.401Z,1002.40
2023-01-12T00:17:18.709Z,1002.24
2023-01-12T00:22:18.182Z,1002.30
2023-01-12T00:27:18.187Z,1002.32
2023-01-12T00:32:18.077Z,1002.31
2023-01-12T00:37:18.027Z,1002.15
2023-01-12T00:42:17.929Z,1002.01
2023-01-12T00:47:17.905Z,1002.00
2023-01-12T00:52:29.402Z,1002.02
2023-01-12T00:57:18.750Z,1001.98
2023-01-12T01:02:17.884Z,1002.03
2023-01-12T01:07:17.618Z,1002.14
2023-01-12T01:12:17.812Z,1002.06
2023-01-12T01:17:17.551Z,1002.18
2023-01-12T01:22:17.392Z,1002.12
2023-01-12T01:27:17.439Z,1002.05
2023-01-12T01:32:17.297Z,1002.03
2023-01-12T01:37:17.226Z,1002.07
2023-01-12T01:42:17.214Z,1002.09
2023-01-12T01:47:17.091Z,1002.13
2023-01-12T01:52:17.101Z,1002.12
2023-01-12T01:57:16.985Z,1001.92
2023-01-12T02:02:16.935Z,1001.97
2023-01-12T02:07:16.849Z,1002.00
2023-01-12T02:12:16.776Z,1002.11
2023-01-12T02:17:16.859Z,1002.24
2023-01-12T02:22:16.662Z,1002.25
2023-01-12T02:27:16.615Z,1002.16
2023-01-12T02:32:16.548Z,1002.13
2023-01-12T02:37:16.419Z,1002.09
2023-01-12T02:42:16.366Z,1002.03
2023-01-12T02:47:16.332Z,1001.93
2023-01-12T02:52:16.246Z,1001.90
2023-01-12T02:57:16.207Z,1001.71
2023-01-12T03:02:16.141Z,1001.76
2023-01-12T03:07:16.036Z,1001.90
2023-01-12T03:12:15.967Z,1001.88
2023-01-12T03:17:15.947Z,1001.91
2023-01-12T03:22:15.884Z,1001.97
2023-01-12T03:27:15.753Z,1001.79
2023-01-12T03:32:15.712Z,1001.80
2023-01-12T03:37:15.677Z,1001.88
2023-01-12T03:42:15.557Z,1001.65
2023-01-12T03:47:15.519Z,1001.69
2023-01-12T03:52:22.437Z,1001.71
2023-01-12T03:57:15.389Z,1001.62
2023-01-12T04:02:15.324Z,1001.70
2023-01-12T04:07:15.253Z,1001.59
2023-01-12T04:12:15.202Z,1001.46
2023-01-12T04:17:15.128Z,1001.46
2023-01-12T04:22:15.053Z,1001.32
2023-01-12T04:27:14.988Z,1001.22
2023-01-12T04:32:14.959Z,1001.29
2023-01-12T04:37:14.891Z,1001.32
2023-01-12T04:42:14.801Z,1001.24
2023-01-12T04:47:14.725Z,1001.19
2023-01-12T04:52:14.680Z,1001.10
2023-01-12T04:57:14.582Z,1001.10
2023-01-12T05:02:14.629Z,1001.06
2023-01-12T05:07:14.481Z,1000.99
2023-01-12T05:12:14.412Z,1000.82
2023-01-12T05:17:14.342Z,1000.76
2023-01-12T05:22:14.296Z,1000.77
2023-01-12T05:27:14.209Z,1000.65
2023-01-12T05:32:14.155Z,1000.74
2023-01-12T05:37:14.085Z,1000.67
2023-01-12T05:42:14.013Z,1000.68
2023-01-12T05:47:14.057Z,1000.65
2023-01-12T05:52:13.909Z,1000.52
2023-01-12T05:57:13.831Z,1000.59
2023-01-12T06:02:13.809Z,1000.53
2023-01-12T06:07:13.682Z,1000.53
2023-01-12T06:12:13.598Z,1000.41
2023-01-12T06:17:13.548Z,1000.55
2023-01-12T06:22:13.482Z,1000.62
2023-01-12T06:27:13.430Z,1000.59
2023-01-12T06:32:13.355Z,1000.51
2023-01-12T06:37:13.294Z,1000.53
2023-01-12T06:42:13.237Z,1000.43
2023-01-12T06:47:13.175Z,1000.49
2023-01-12T06:52:13.090Z,1000.61
2023-01-12T06:57:13.037Z,1000.59
2023-01-12T07:02:13.014Z,1000.51
2023-01-12T07:07:12.917Z,1000.60
2023-01-12T07:12:12.867Z,1000.65
2023-01-12T07:17:12.825Z,1000.64
2023-01-12T07:22:12.707Z,1000.54
2023-01-12T07:27:12.675Z,1000.48
2023-01-12T07:32:12.606Z,1000.49
2023-01-12T07:37:12.546Z,1000.70
2023-01-12T07:42:12.449Z,1000.76
2023-01-12T07:47:12.369Z,1000.62
2023-01-12T07:52:12.341Z,1000.63
2023-01-12T07:57:12.234Z,1000.64
2023-01-12T08:02:12.208Z,1000.51
2023-01-12T08:07:12.107Z,1000.51
2023-01-12T08:12:12.040Z,1000.48
2023-01-12T08:17:11.978Z,1000.45
2023-01-12T08:22:11.905Z,1000.39
2023-01-12T08:27:11.854Z,1000.33
2023-01-12T08:32:11.805Z,1000.31
2023-01-12T08:37:11.698Z,1000.29
2023-01-12T08:42:11.665Z,1000.24
2023-01-12T08:47:11.610Z,1000.10
2023-01-12T08:52:11.779Z,1000.16
2023-01-12T08:57:11.481Z,1000.17
2023-01-12T09:02:11.669Z,1000.13
2023-01-12T09:07:11.353Z,1000.16
2023-01-12T09:12:11.259Z,999.99
2023-01-12T09:17:11.182Z,999.91
2023-01-12T09:22:11.111Z,999.95
2023-01-12T09:27:11.030Z,999.81
2023-01-12T09:32:10.993Z,999.71
2023-01-12T09:37:10.902Z,999.59
2023-01-12T09:42:10.841Z,999.49
2023-01-12T09:47:10.808Z,999.28
2023-01-12T09:52:10.763Z,999.20
2023-01-12T09:57:12.812Z,999.36
2023-01-12T10:02:10.741Z,999.36
2023-01-12T10:07:10.542Z,999.25
2023-01-12T10:12:10.441Z,999.17
2023-01-12T10:17:10.419Z,999.24
2023-01-12T10:22:10.367Z,999.14
2023-01-12T10:27:10.580Z,999.06
2023-01-12T10:32:10.201Z,998.91
2023-01-12T10:37:10.128Z,998.81
2023-01-12T10:42:10.023Z,998.78
2023-01-12T10:47:16.967Z,998.69
2023-01-12T10:52:09.901Z,998.65
2023-01-12T10:57:09.858Z,998.52
2023-01-12T11:02:10.009Z,998.44
2023-01-12T11:07:09.712Z,998.15
2023-01-12T11:12:09.638Z,998.16
2023-01-12T11:17:09.584Z,998.09
2023-01-12T11:22:09.543Z,998.15
2023-01-12T11:27:09.457Z,998.04
2023-01-12T11:32:09.391Z,998.00
2023-01-12T11:37:09.308Z,998.00
2023-01-12T11:42:09.282Z,997.96
2023-01-12T11:47:09.229Z,997.76
2023-01-12T11:52:09.137Z,997.68
2023-01-12T11:57:09.057Z,997.64
2023-01-12T12:02:09.083Z,997.49
2023-01-12T12:07:13.012Z,997.54
2023-01-12T12:12:08.901Z,997.58
2023-01-12T12:17:08.839Z,997.57
2023-01-12T12:22:08.769Z,997.62
2023-01-12T12:27:08.713Z,997.76
2023-01-12T12:32:08.611Z,997.64
2023-01-12T12:37:08.554Z,997.73
2023-01-12T12:42:09.183Z,997.77
2023-01-12T12:47:08.430Z,997.60
2023-01-12T12:52:08.338Z,997.58
2023-01-12T12:57:08.288Z,997.51
2023-01-12T13:02:08.233Z,997.44
2023-01-12T13:07:08.150Z,997.23
2023-01-12T13:12:08.845Z,997.40
2023-01-12T13:17:08.021Z,997.25
2023-01-12T13:22:08.749Z,997.33
2023-01-12T13:27:08.472Z,997.20
2023-01-12T13:32:07.827Z,997.16
2023-01-12T13:37:07.739Z,997.28
2023-01-12T13:42:08.954Z,997.29
2023-01-12T13:47:07.610Z,997.34
2023-01-12T13:52:07.612Z,997.30
2023-01-12T13:57:07.459Z,997.26
2023-01-12T14:02:07.537Z,997.23
2023-01-12T14:07:07.347Z,997.37
2023-01-12T14:12:07.266Z,997.36
2023-01-12T14:17:07.202Z,997.33
2023-01-12T14:22:07.144Z,997.30
2023-01-12T14:27:07.073Z,997.36
2023-01-12T14:32:07.007Z,997.30
2023-01-12T14:37:06.934Z,997.29
2023-01-12T14:42:06.893Z,997.30
2023-01-12T14:47:06.943Z,997.38
2023-01-12T14:52:06.722Z,997.34
2023-01-12T14:57:06.703Z,997.21
2023-01-12T15:02:06.608Z,997.17
2023-01-12T15:07:06.536Z,997.18
2023-01-12T15:12:06.557Z,997.24
2023-01-12T15:17:06.399Z,997.25
2023-01-12T15:22:06.346Z,997.15
2023-01-12T15:27:06.926Z,997.34
2023-01-12T15:32:06.256Z,997.26
2023-01-12T15:37:06.165Z,997.24
2023-01-12T15:42:06.085Z,997.28
2023-01-12T15:47:06.050Z,997.32
2023-01-12T15:52:09.884Z,997.38
2023-01-12T15:57:05.884Z,997.25
2023-01-12T16:02:05.995Z,997.20
2023-01-12T16:07:05.771Z,997.35
2023-01-12T16:12:05.700Z,997.26
2023-01-12T16:17:05.664Z,997.26
2023-01-12T16:22:05.549Z,997.27
2023-01-12T16:27:05.484Z,997.23
2023-01-12T16:32:05.468Z,997.25
2023-01-12T16:37:05.354Z,997.19
2023-01-12T16:42:05.328Z,997.16
2023-01-12T16:47:05.226Z,997.14
2023-01-12T16:52:05.150Z,997.10
2023-01-12T16:57:05.087Z,997.05
2023-01-12T17:02:05.141Z,997.00
2023-01-12T17:07:04.946Z,997.01
2023-01-12T17:12:04.888Z,997.08
2023-01-12T17:17:05.567Z,996.93
2023-01-12T17:22:04.777Z,996.93
2023-01-12T17:27:04.665Z,996.88
2023-01-12T17:32:06.887Z,996.88
2023-01-12T17:37:04.573Z,996.76
2023-01-12T17:42:04.544Z,996.83
2023-01-12T17:47:04.437Z,996.78
2023-01-12T17:52:04.347Z,996.77
2023-01-12T17:57:04.275Z,996.85
2023-01-12T18:02:11.262Z,996.83
2023-01-12T18:07:04.129Z,996.77
2023-01-12T18:12:04.080Z,996.73
2023-01-12T18:17:04.012Z,996.78
2023-01-12T18:22:03.974Z,996.71
2023-01-12T18:27:03.899Z,996.60
2023-01-12T18:32:03.837Z,996.55
2023-01-12T18:37:03.830Z,996.49
2023-01-12T18:42:03.733Z,996.45
2023-01-12T18:47:03.694Z,996.43
2023-01-12T18:52:03.596Z,996.43
2023-01-12T18:57:03.554Z,996.45
2023-01-12T19:02:03.564Z,996.45
2023-01-12T19:07:03.583Z,996.40
2023-01-12T19:12:04.600Z,996.47
2023-01-12T19:17:03.247Z,996.40
2023-01-12T19:22:03.211Z,996.39
2023-01-12T19:27:03.774Z,996.33
2023-01-12T19:32:03.044Z,996.43
2023-01-12T19:37:03.202Z,996.37
2023-01-12T19:42:02.983Z,996.33
2023-01-12T19:47:02.830Z,996.40
2023-01-12T19:52:02.797Z,996.47
2023-01-12T19:57:02.707Z,996.48
2023-01-12T20:02:02.734Z,996.43
2023-01-12T20:07:02.588Z,996.36
2023-01-12T20:12:02.502Z,996.25
2023-01-12T20:17:02.467Z,996.25
2023-01-12T20:22:02.432Z,996.21
2023-01-12T20:27:02.383Z,996.14
2023-01-12T20:32:02.347Z,996.09
2023-01-12T20:37:02.174Z,996.20
2023-01-12T20:42:02.132Z,996.16
2023-01-12T20:47:02.694Z,996.08
2023-01-12T20:52:01.986Z,996.09
2023-01-12T20:57:01.906Z,996.14
2023-01-12T21:02:02.027Z,996.01
2023-01-12T21:07:01.797Z,996.08
2023-01-12T21:12:01.713Z,996.08
2023-01-12T21:17:01.817Z,996.13
2023-01-12T21:22:01.630Z,995.92
2023-01-12T21:27:01.602Z,995.92
2023-01-12T21:32:01.533Z,995.87
2023-01-12T21:37:01.438Z,995.79
2023-01-12T21:42:01.366Z,995.72
2023-01-12T21:47:01.253Z,995.69
2023-01-12T21:52:01.198Z,995.66
2023-01-12T21:57:01.669Z,995.52
2023-01-12T22:02:01.273Z,995.63
2023-01-12T22:07:01.059Z,995.58
2023-01-12T22:12:00.993Z,995.62
2023-01-12T22:17:00.854Z,995.63
2023-01-12T22:22:00.854Z,995.53
2023-01-12T22:27:00.771Z,995.51
2023-01-12T22:32:00.770Z,995.60
2023-01-12T22:37:00.697Z,995.56
2023-01-12T22:42:00.529Z,995.70
2023-01-12T22:47:00.493Z,995.63
2023-01-12T22:52:00.388Z,995.63
2023-01-12T22:57:00.321Z,995.64
2023-01-12T23:02:00.544Z,995.52
2023-01-12T23:07:00.309Z,995.42
2023-01-12T23:12:00.262Z,995.39
2023-01-12T23:17:00.167Z,995.37
2023-01-12T23:22:00.145Z,995.38
2023-01-12T23:27:00.117Z,995.32
2023-01-12T23:32:00.003Z,995.21
2023-01-12T23:36:59.981Z,995.27
2023-01-12T23:41:59.845Z,995.16
2023-01-12T23:46:59.756Z,995.10
2023-01-12T23:51:59.719Z,995.13
2023-01-12T23:56:59.679Z,995.06
